Time;durP1;ratioP1;P1;durP2;ratioP2;P2;SDS_P1;SDS_P2;PMS_P1;PMS_P2;Temp;Humidity;BMP_temperature;BMP_pressure;BME280_temperature;BME280_humidity;BME280_pressure;Samples;Min_cycle;Max_cycle;Signal;HPM_P1;HPM_P2
2023/01/14 00:01:11;;;;;;;11.23;5.47;;;;;;;4.97;88.20;94915.19;5125626;27;20617;-77
2023/01/14 00:03:38;;;;;;;9.95;6.43;;;;;;;4.98;87.58;94913.31;5125186;27;20197;-79
2023/01/14 00:06:05;;;;;;;13.23;5.53;;;;;;;4.87;88.32;94914.50;5120636;27;20205;-78
2023/01/14 00:08:34;;;;;;;12.90;6.32;;;;;;;4.91;88.19;94913.66;5133892;27;20387;-79
2023/01/14 00:11:03;;;;;;;9.07;5.63;;;;;;;4.76;89.22;94915.72;5120676;27;20205;-78
2023/01/14 00:13:33;;;;;;;12.27;5.57;;;;;;;4.93;88.71;94916.03;5120791;27;20767;-78
2023/01/14 00:16:01;;;;;;;15.13;6.22;;;;;;;5.10;87.91;94912.91;5127294;27;20633;-79
2023/01/14 00:18:28;;;;;;;13.60;6.10;;;;;;;5.27;86.81;94914.06;5127445;27;20228;-78
2023/01/14 00:20:59;;;;;;;12.32;5.55;;;;;;;5.26;87.07;94914.34;5120377;27;20225;-77
2023/01/14 00:23:27;;;;;;;11.20;6.82;;;;;;;5.28;86.38;94912.19;5119494;27;20656;-78
2023/01/14 00:26:00;;;;;;;17.13;7.78;;;;;;;5.28;86.40;94912.19;5126011;27;20202;-78
2023/01/14 00:28:27;;;;;;;11.38;6.20;;;;;;;5.18;87.21;94906.94;5128553;27;20675;-78
2023/01/14 00:30:54;;;;;;;14.85;7.00;;;;;;;4.89;88.02;94905.09;5133982;27;20231;-78
2023/01/14 00:33:21;;;;;;;14.48;7.05;;;;;;;4.60;89.61;94901.63;5120283;27;20202;-78
2023/01/14 00:35:53;;;;;;;19.15;7.97;;;;;;;4.48;91.17;94898.53;5125073;27;20255;-78
2023/01/14 00:38:19;;;;;;;10.82;5.40;;;;;;;4.38;92.55;94898.59;5126767;27;20535;-78
2023/01/14 00:40:46;;;;;;;21.90;7.95;;;;;;;4.19;93.79;94896.63;5123099;27;20624;-78
2023/01/14 00:43:14;;;;;;;18.27;8.65;;;;;;;4.20;94.47;94898.22;5119527;27;20197;-78
2023/01/14 00:45:41;;;;;;;16.83;7.55;;;;;;;4.25;94.74;94900.84;5123363;27;20214;-78
2023/01/14 00:48:08;;;;;;;16.50;7.30;;;;;;;4.20;94.64;94902.81;5126449;27;20194;-78
2023/01/14 00:50:35;;;;;;;15.55;7.63;;;;;;;4.06;95.17;94905.31;5123258;27;20261;-78
2023/01/14 00:53:01;;;;;;;18.23;7.63;;;;;;;4.05;95.90;94900.22;5130394;27;20197;-80
2023/01/14 00:55:28;;;;;;;18.08;7.43;;;;;;;4.02;95.83;94904.25;5112576;28;20198;-76
2023/01/14 00:57:55;;;;;;;14.30;5.45;;;;;;;3.90;95.85;94903.81;5121019;27;20269;-78
2023/01/14 01:00:23;;;;;;;16.15;6.78;;;;;;;3.94;96.01;94904.88;5121787;27;20233;-79
2023/01/14 01:02:50;;;;;;;8.88;5.22;;;;;;;4.01;96.22;94905.34;5126415;27;20255;-80
2023/01/14 01:05:17;;;;;;;19.08;9.52;;;;;;;4.09;96.13;94909.31;5124115;27;20246;-79
2023/01/14 01:07:43;;;;;;;15.30;7.32;;;;;;;4.17;95.77;94911.41;5119283;27;20257;-78
2023/01/14 01:10:11;;;;;;;22.55;9.60;;;;;;;4.18;96.22;94905.75;5121162;27;20217;-78
2023/01/14 01:12:38;;;;;;;26.50;10.73;;;;;;;4.22;95.89;94906.81;5116835;27;20201;-79
2023/01/14 01:15:05;;;;;;;26.92;10.63;;;;;;;4.21;95.79;94893.69;5121551;27;20194;-78
2023/01/14 01:17:33;;;;;;;18.27;8.60;;;;;;;4.33;95.48;94902.16;5125833;27;20225;-78
2023/01/14 01:20:00;;;;;;;14.30;6.72;;;;;;;4.40;95.56;94904.50;5123680;27;20232;-77
2023/01/14 01:22:28;;;;;;;17.85;7.68;;;;;;;4.52;94.86;94895.00;5118944;27;20201;-79
2023/01/14 01:24:55;;;;;;;19.30;6.30;;;;;;;4.56;94.68;94895.22;5120406;27;20216;-78
2023/01/14 01:27:22;;;;;;;34.00;8.25;;;;;;;4.74;93.54;94899.88;5125788;27;20205;-78
2023/01/14 01:29:49;;;;;;;17.13;7.50;;;;;;;4.78;92.95;94887.50;5124414;27;20201;-78
2023/01/14 01:32:15;;;;;;;16.75;6.40;;;;;;;4.81;92.45;94886.91;5118246;27;20812;-78
2023/01/14 01:34:43;;;;;;;23.85;7.63;;;;;;;4.77;92.53;94891.28;5132236;27;20209;-77
2023/01/14 01:37:10;;;;;;;18.02;7.45;;;;;;;4.75;92.67;94888.06;5120162;27;20209;-77
2023/01/14 01:39:37;;;;;;;16.42;6.75;;;;;;;4.64;93.01;94881.22;5122096;27;20197;-77
2023/01/14 01:42:04;;;;;;;15.93;7.30;;;;;;;4.60;93.23;94885.53;5133485;27;20204;-77
2023/01/14 01:45:08;;;;;;;16.13;7.70;;;;;;;4.75;92.96;94880.03;5133330;27;20205;-76
2023/01/14 01:47:35;;;;;;;20.75;6.47;;;;;;;4.64;92.76;94882.00;5122669;27;20234;-77
2023/01/14 01:50:03;;;;;;;16.10;7.70;;;;;;;4.62;92.88;94881.50;5118911;27;20537;-77
2023/01/14 01:52:30;;;;;;;14.98;6.78;;;;;;;4.60;92.81;94869.44;5131985;27;20201;-77
2023/01/14 01:55:02;;;;;;;15.68;6.63;;;;;;;4.53;93.02;94872.44;5112283;27;20270;-77
2023/01/14 01:57:30;;;;;;;18.63;8.63;;;;;;;4.48;92.86;94866.34;5124972;27;20285;-77
2023/01/14 02:00:00;;;;;;;20.83;8.30;;;;;;;4.49;92.89;94865.28;5125516;27;20763;-77
2023/01/14 02:02:29;;;;;;;15.02;6.95;;;;;;;4.49;92.96;94862.59;5125703;27;20581;-77
2023/01/14 02:04:56;;;;;;;13.50;7.47;;;;;;;4.43;93.03;94863.69;5119006;27;20200;-77
2023/01/14 02:07:26;;;;;;;13.48;7.35;;;;;;;4.35;93.27;94869.69;5117852;27;20208;-77
2023/01/14 02:09:56;;;;;;;16.40;7.43;;;;;;;4.19;94.10;94864.47;5123091;27;20674;-77
2023/01/14 02:12:38;;;;;;;14.73;8.77;;;;;;;4.15;93.93;94867.97;5126256;27;20200;-77
2023/01/14 02:15:22;;;;;;;16.58;7.13;;;;;;;3.77;93.99;94873.09;5120328;27;20197;-77
2023/01/14 02:18:02;;;;;;;15.57;6.25;;;;;;;3.89;94.98;94876.22;5125011;27;20508;-77
2023/01/14 02:20:37;;;;;;;12.70;6.53;;;;;;;4.03;95.01;94879.06;5124195;27;20228;-77
2023/01/14 02:23:56;;;;;;;14.90;7.03;;;;;;;4.08;94.64;94873.69;5120854;27;20195;-77
2023/01/14 02:27:00;;;;;;;14.68;7.80;;;;;;;4.07;94.28;94872.06;5121269;27;20209;-78
2023/01/14 02:29:55;;;;;;;14.93;6.72;;;;;;;4.18;93.73;94876.25;5110409;28;20201;-78
2023/01/14 02:32:30;;;;;;;14.82;5.78;;;;;;;4.00;94.57;94871.56;5124495;27;20289;-76
2023/01/14 02:35:04;;;;;;;12.88;6.90;;;;;;;3.92;94.39;94870.31;5124382;27;20193;-77
2023/01/14 02:37:38;;;;;;;7.32;4.60;;;;;;;3.97;94.47;94869.44;5110879;28;20602;-77
2023/01/14 02:40:12;;;;;;;9.73;5.80;;;;;;;3.88;94.87;94868.47;5124709;27;20189;-78
2023/01/14 02:45:36;;;;;;;9.82;5.90;;;;;;;3.83;95.45;94876.53;5116948;27;20248;-78
2023/01/14 02:48:05;;;;;;;13.02;5.20;;;;;;;3.90;95.17;94871.66;5129913;27;20705;-78
2023/01/14 02:50:34;;;;;;;15.13;6.50;;;;;;;3.98;94.98;94879.09;5120143;27;20664;-78
2023/01/14 02:53:00;;;;;;;12.85;6.82;;;;;;;3.91;94.50;94873.28;5127941;27;20257;-78
2023/01/14 02:55:31;;;;;;;13.88;5.93;;;;;;;3.88;94.62;94879.97;5120982;27;20205;-77
2023/01/14 02:58:21;;;;;;;9.80;5.18;;;;;;;4.02;94.64;94869.44;5121833;27;20205;-77
2023/01/14 03:00:59;;;;;;;7.25;4.10;;;;;;;4.03;94.38;94871.03;5123717;27;20245;-77
2023/01/14 03:03:42;;;;;;;11.90;5.65;;;;;;;4.10;94.02;94866.13;5120092;27;20237;-77
2023/01/14 03:06:25;;;;;;;12.20;5.55;;;;;;;4.18;93.83;94873.59;5130708;27;20265;-77
2023/01/14 03:08:59;;;;;;;8.93;5.40;;;;;;;4.15;93.71;94867.97;5116887;27;20190;-76
2023/01/14 03:11:31;;;;;;;12.75;6.03;;;;;;;4.09;93.90;94869.91;5122190;27;20249;-77
2023/01/14 03:14:03;;;;;;;10.85;5.07;;;;;;;4.00;94.06;94874.25;5126221;27;20229;-76
2023/01/14 03:16:41;;;;;;;18.25;5.57;;;;;;;4.21;93.51;94873.03;5120485;27;20266;-77
2023/01/14 03:19:14;;;;;;;9.50;4.63;;;;;;;4.11;93.31;94873.09;5123309;27;20923;-76
2023/01/14 03:21:45;;;;;;;8.68;4.70;;;;;;;4.10;93.21;94871.50;5122273;27;20236;-76
2023/01/14 03:24:22;;;;;;;8.80;4.85;;;;;;;4.25;93.16;94868.69;5116311;27;20246;-77
2023/01/14 03:26:51;;;;;;;13.32;6.57;;;;;;;4.23;93.31;94860.16;5116502;28;20644;-76
2023/01/14 03:29:23;;;;;;;11.18;5.70;;;;;;;4.20;92.97;94860.72;5130297;28;20257;-76
2023/01/14 03:31:57;;;;;;;8.13;5.00;;;;;;;4.34;92.83;94854.69;5127706;28;20281;-76
2023/01/14 03:34:30;;;;;;;10.88;5.72;;;;;;;4.33;92.14;94853.09;5120086;28;20196;-76
2023/01/14 03:37:00;;;;;;;14.13;6.43;;;;;;;4.42;91.99;94857.53;5129711;28;20257;-76
2023/01/14 03:39:29;;;;;;;13.73;5.22;;;;;;;4.18;92.04;94849.47;5118055;28;20588;-76
2023/01/14 03:42:19;;;;;;;14.18;6.68;;;;;;;4.11;93.05;94851.66;5128581;28;20209;-76
2023/01/14 03:44:57;;;;;;;7.60;4.20;;;;;;;4.27;92.92;94853.13;5128137;27;20225;-76
2023/01/14 03:47:27;;;;;;;23.27;8.02;;;;;;;4.07;92.81;94856.00;5120353;28;20204;-77
2023/01/14 03:49:54;;;;;;;14.32;6.60;;;;;;;3.93;93.68;94866.56;5116442;28;20651;-76
2023/01/14 03:52:32;;;;;;;21.02;9.32;;;;;;;3.72;94.77;94862.41;5130013;28;20279;-77
2023/01/14 03:55:05;;;;;;;21.27;8.98;;;;;;;3.85;94.92;94860.97;5130133;28;20257;-76
2023/01/14 03:57:39;;;;;;;13.77;6.65;;;;;;;4.01;94.73;94856.31;5120611;28;20588;-76
2023/01/14 04:00:11;;;;;;;12.57;6.80;;;;;;;4.23;94.33;94859.34;5122331;28;20193;-76
2023/01/14 04:02:41;;;;;;;13.75;7.13;;;;;;;4.33;92.88;94853.09;5109159;28;20243;-77
2023/01/14 04:05:09;;;;;;;12.02;6.10;;;;;;;4.51;92.56;94857.75;5119399;28;20193;-77
2023/01/14 04:07:36;;;;;;;20.40;8.45;;;;;;;4.48;92.37;94855.63;5115751;28;20197;-77
2023/01/14 04:10:03;;;;;;;13.65;6.15;;;;;;;4.54;91.74;94849.91;5120144;28;20205;-77
2023/01/14 04:12:30;;;;;;;13.05;6.55;;;;;;;4.53;91.50;94847.50;5122940;27;20222;-77
2023/01/14 04:17:42;;;;;;;13.80;5.88;;;;;;;4.63;91.63;94853.59;5130196;28;20914;-78
2023/01/14 04:20:10;;;;;;;15.95;6.07;;;;;;;4.64;90.78;94844.47;5129939;27;20228;-77
2023/01/14 04:22:37;;;;;;;14.98;6.00;;;;;;;4.62;91.40;94845.81;5115881;28;20621;-78
2023/01/14 04:25:04;;;;;;;14.25;6.80;;;;;;;4.68;91.30;94836.63;5129789;28;20212;-78
2023/01/14 04:27:30;;;;;;;15.30;6.85;;;;;;;4.50;91.53;94848.09;5129993;28;20783;-77
2023/01/14 04:29:57;;;;;;;13.43;6.20;;;;;;;4.45;92.09;94840.09;5129447;28;20201;-77
2023/01/14 04:32:24;;;;;;;15.07;6.10;;;;;;;4.34;92.39;94847.44;5116428;28;20197;-77
2023/01/14 04:34:52;;;;;;;11.82;6.07;;;;;;;4.44;92.17;94843.84;5116914;27;20206;-77
2023/01/14 04:37:19;;;;;;;13.68;6.28;;;;;;;4.32;92.56;94841.56;5125605;27;20205;-77
2023/01/14 04:39:46;;;;;;;14.43;4.63;;;;;;;4.31;92.31;94839.16;5126433;27;20289;-76
2023/01/14 04:42:28;;;;;;;11.82;6.47;;;;;;;4.13;93.33;94838.78;5121317;27;20209;-77
2023/01/14 04:44:56;;;;;;;17.55;6.32;;;;;;;4.13;93.93;94843.31;5133366;27;20236;-77
2023/01/14 04:47:23;;;;;;;17.60;7.28;;;;;;;4.18;93.64;94836.06;5122248;27;20205;-77
2023/01/14 04:49:51;;;;;;;10.48;5.20;;;;;;;4.26;93.90;94838.13;5117308;27;20259;-75
2023/01/14 04:52:19;;;;;;;9.63;5.50;;;;;;;4.24;93.95;94845.63;5132985;27;20201;-76
2023/01/14 04:54:46;;;;;;;21.77;8.75;;;;;;;4.25;94.24;94841.88;5128606;27;20201;-76
2023/01/14 04:57:13;;;;;;;22.63;9.02;;;;;;;4.36;93.94;94847.16;5123853;27;20250;-76
2023/01/14 04:59:40;;;;;;;20.17;8.55;;;;;;;4.31;93.78;94841.84;5127912;27;20780;-77
2023/01/14 05:02:06;;;;;;;16.33;6.05;;;;;;;4.29;93.56;94848.28;5123934;27;20196;-78
2023/01/14 05:04:33;;;;;;;16.95;7.78;;;;;;;4.32;93.88;94846.13;5128040;27;20201;-78
2023/01/14 05:07:02;;;;;;;15.80;6.82;;;;;;;4.17;94.00;94844.38;5124342;27;20196;-76
2023/01/14 05:09:29;;;;;;;16.60;7.05;;;;;;;4.28;94.36;94852.03;5119114;27;20246;-76
2023/01/14 05:11:56;;;;;;;15.35;7.88;;;;;;;4.39;93.89;94841.22;5132870;27;20216;-76
2023/01/14 05:14:23;;;;;;;13.18;7.20;;;;;;;4.47;93.60;94849.47;5118648;27;20724;-76
2023/01/14 05:16:50;;;;;;;15.73;7.18;;;;;;;4.48;93.08;94851.06;5120325;27;20205;-76
2023/01/14 05:19:17;;;;;;;17.10;7.95;;;;;;;4.53;93.06;94842.13;5117936;27;20224;-77
2023/01/14 05:21:43;;;;;;;9.45;4.78;;;;;;;4.68;91.41;94844.66;5132769;27;21006;-76
2023/01/14 05:24:12;;;;;;;7.95;4.50;;;;;;;4.53;90.95;94842.13;5132540;27;20733;-76
2023/01/14 05:26:38;;;;;;;14.88;6.22;;;;;;;4.53;91.24;94847.50;5119266;27;20318;-78
2023/01/14 05:29:05;;;;;;;11.50;5.18;;;;;;;4.55;90.68;94850.72;5118793;27;20205;-78
2023/01/14 05:31:32;;;;;;;10.57;5.40;;;;;;;4.54;90.92;94855.28;5119239;27;20699;-77
2023/01/14 05:33:59;;;;;;;12.52;5.60;;;;;;;4.59;91.06;94851.75;5132563;27;20204;-76
2023/01/14 05:36:27;;;;;;;12.10;5.70;;;;;;;4.63;91.20;94852.78;5132450;27;20197;-76
2023/01/14 05:38:53;;;;;;;10.50;6.00;;;;;;;4.61;91.25;94849.59;5132405;27;20289;-76
2023/01/14 05:41:22;;;;;;;10.82;5.57;;;;;;;4.68;90.57;94858.09;5131916;27;20262;-76
2023/01/14 05:46:33;;;;;;;11.35;5.32;;;;;;;4.52;91.85;94856.63;5114620;27;20245;-76
2023/01/14 05:48:59;;;;;;;12.25;6.63;;;;;;;4.46;91.86;94852.41;5122674;27;20274;-75
2023/01/14 05:51:26;;;;;;;10.75;4.63;;;;;;;4.49;92.00;94862.59;5128900;27;20254;-78
2023/01/14 05:53:53;;;;;;;14.10;6.20;;;;;;;4.71;91.28;94860.19;5122031;27;20202;-77
2023/01/14 05:56:20;;;;;;;11.77;5.18;;;;;;;4.71;91.20;94865.56;5125242;27;20903;-79
2023/01/14 05:58:48;;;;;;;15.40;6.03;;;;;;;4.69;91.39;94866.94;5120959;27;20282;-76
2023/01/14 06:06:47;;;;;;;10.57;4.97;;;;;;;4.86;90.98;94868.09;5120404;27;20200;-76
2023/01/14 06:09:15;;;;;;;9.65;5.40;;;;;;;5.00;90.28;94863.63;5118552;27;20200;-77
2023/01/14 06:11:44;;;;;;;10.50;5.15;;;;;;;5.09;88.52;94854.94;5121609;27;20265;-77
2023/01/14 06:14:12;;;;;;;10.00;5.55;;;;;;;5.07;88.53;94857.91;5115782;27;20212;-78
2023/01/14 06:16:40;;;;;;;14.98;6.53;;;;;;;5.03;88.42;94850.72;5120258;27;20205;-76
2023/01/14 06:19:09;;;;;;;11.52;5.57;;;;;;;5.09;88.65;94849.56;5127835;27;20313;-77
2023/01/14 06:21:36;;;;;;;12.98;6.90;;;;;;;5.27;88.31;94851.50;5111888;27;20272;-77
2023/01/14 06:24:03;;;;;;;10.80;6.05;;;;;;;5.18;88.40;94856.72;5131653;27;20189;-77
2023/01/14 06:26:32;;;;;;;10.73;4.75;;;;;;;5.17;88.69;94851.63;5129088;27;20250;-77
2023/01/14 06:29:00;;;;;;;13.40;6.75;;;;;;;5.15;88.96;94859.16;5120148;27;20258;-77
2023/01/14 06:31:28;;;;;;;13.25;7.32;;;;;;;5.04;89.31;94857.69;5121846;27;20282;-77
2023/01/14 06:33:56;;;;;;;17.70;7.00;;;;;;;5.11;89.35;94858.94;5128432;27;20664;-77
2023/01/14 06:36:25;;;;;;;20.80;7.70;;;;;;;5.21;89.15;94858.00;5124789;27;20218;-79
2023/01/14 06:38:52;;;;;;;9.88;5.50;;;;;;;5.39;88.74;94859.91;5125207;27;20226;-75
2023/01/14 06:41:19;;;;;;;16.70;7.10;;;;;;;5.29;88.19;94860.06;5127851;27;20254;-76
2023/01/14 06:43:46;;;;;;;13.35;6.72;;;;;;;5.05;89.07;94864.66;5117929;27;20193;-77
2023/01/14 06:46:15;;;;;;;18.95;7.57;;;;;;;4.82;90.10;94874.31;5124555;27;20205;-76
2023/01/14 06:48:44;;;;;;;14.68;6.88;;;;;;;4.60;91.45;94874.81;5118116;27;20220;-78
2023/01/14 06:51:13;;;;;;;18.13;7.70;;;;;;;4.60;91.38;94869.44;5126507;27;20266;-78
2023/01/14 06:53:40;;;;;;;11.05;5.45;;;;;;;4.64;91.50;94871.28;5115296;27;20198;-78
2023/01/14 06:56:08;;;;;;;16.17;9.20;;;;;;;4.45;92.00;94866.91;5126097;27;20605;-77
2023/01/14 06:58:35;;;;;;;15.23;7.35;;;;;;;4.52;91.96;94872.72;5119976;27;20664;-78
2023/01/14 07:01:02;;;;;;;14.20;6.50;;;;;;;4.62;91.72;94883.38;5130014;27;20759;-78
2023/01/14 07:03:30;;;;;;;19.08;8.43;;;;;;;4.22;92.24;94880.00;5130870;27;20770;-78
2023/01/14 07:05:59;;;;;;;17.88;7.80;;;;;;;4.15;92.86;94876.81;5127325;27;20201;-81
2023/01/14 07:08:26;;;;;;;18.40;5.72;;;;;;;4.06;93.23;94883.06;5109910;28;20201;-77
2023/01/14 07:10:53;;;;;;;8.27;5.00;;;;;;;4.10;93.69;94887.56;5128069;27;20277;-78
2023/01/14 07:13:21;;;;;;;10.63;6.32;;;;;;;4.31;94.00;94887.41;5130664;27;20231;-78
2023/01/14 07:15:51;;;;;;;17.35;8.13;;;;;;;4.02;93.52;94885.50;5127938;27;20201;-75
2023/01/14 07:18:18;;;;;;;13.68;6.65;;;;;;;4.09;93.55;94891.38;5130123;27;20655;-75
2023/01/14 07:20:45;;;;;;;17.17;7.68;;;;;;;4.09;93.95;94895.91;5120436;27;20764;-76
2023/01/14 07:23:13;;;;;;;15.85;6.90;;;;;;;4.17;93.62;94892.63;5125445;27;20664;-74
2023/01/14 07:25:40;;;;;;;17.63;7.50;;;;;;;4.34;93.17;94902.94;5127689;27;20262;-77
2023/01/14 07:28:07;;;;;;;13.27;6.60;;;;;;;4.49;92.49;94897.47;5130970;27;20201;-78
2023/01/14 07:30:34;;;;;;;6.93;4.57;;;;;;;4.47;92.11;94908.47;5116203;28;20238;-75
2023/01/14 07:33:01;;;;;;;11.32;5.90;;;;;;;4.65;91.79;94898.88;5126450;28;20208;-74
2023/01/14 07:35:28;;;;;;;11.85;6.20;;;;;;;4.68;90.62;94903.69;5123455;28;20709;-76
2023/01/14 07:37:55;;;;;;;20.38;9.35;;;;;;;4.75;90.28;94904.19;5129500;28;20196;-75
2023/01/14 07:40:24;;;;;;;14.55;6.97;;;;;;;4.86;89.84;94911.03;5129782;28;20235;-78
2023/01/14 07:42:56;;;;;;;12.75;7.13;;;;;;;4.97;89.08;94907.16;5126629;28;20262;-76
2023/01/14 07:45:23;;;;;;;14.98;6.13;;;;;;;4.94;88.55;94913.09;5119359;28;20332;-75
2023/01/14 07:47:49;;;;;;;14.00;6.45;;;;;;;4.96;87.68;94920.84;5105006;28;20204;-78
2023/01/14 07:50:17;;;;;;;17.75;7.03;;;;;;;4.99;87.47;94915.72;5120825;28;20313;-78
2023/01/14 07:52:43;;;;;;;21.15;7.72;;;;;;;5.12;87.61;94913.44;5130280;28;20227;-78
2023/01/14 07:55:10;;;;;;;23.23;7.88;;;;;;;5.22;86.85;94908.75;5120152;28;20251;-78
2023/01/14 07:57:39;;;;;;;22.58;8.80;;;;;;;5.38;86.64;94912.03;5116241;28;20205;-78
2023/01/14 08:00:07;;;;;;;17.48;7.65;;;;;;;5.20;86.44;94920.84;5125534;28;20285;-79
2023/01/14 08:02:36;;;;;;;21.27;7.57;;;;;;;4.64;88.42;94918.78;5129181;28;20193;-77
2023/01/14 08:05:04;;;;;;;15.25;7.47;;;;;;;4.86;88.48;94916.41;5127113;28;20216;-78
2023/01/14 08:07:31;;;;;;;21.63;9.85;;;;;;;5.05;87.54;94913.00;5133146;28;20624;-78
2023/01/14 08:09:57;;;;;;;26.48;11.18;;;;;;;4.99;87.13;94914.91;5132848;27;20205;-78
2023/01/14 08:12:24;;;;;;;15.32;8.18;;;;;;;4.81;88.02;94919.13;5132206;27;20597;-78
2023/01/14 08:14:52;;;;;;;14.65;7.72;;;;;;;4.74;88.34;94921.34;5131488;27;20191;-78
2023/01/14 08:17:19;;;;;;;21.90;9.07;;;;;;;4.76;88.05;94921.88;5122028;27;20249;-80
2023/01/14 08:19:47;;;;;;;12.77;6.70;;;;;;;5.16;87.19;94919.84;5124184;27;20252;-81
2023/01/14 08:22:14;;;;;;;12.07;5.35;;;;;;;5.49;85.28;94926.16;5130559;27;20286;-79
2023/01/14 08:24:41;;;;;;;12.25;6.78;;;;;;;5.24;84.68;94924.56;5130356;27;20204;-76
2023/01/14 08:27:08;;;;;;;10.98;5.18;;;;;;;5.45;84.58;94923.25;5128000;27;20552;-79
2023/01/14 08:29:35;;;;;;;14.18;4.82;;;;;;;5.89;83.48;94924.81;5124317;27;20197;-78
2023/01/14 08:32:03;;;;;;;4.80;3.40;;;;;;;5.85;82.15;94921.13;5124026;27;20193;-77
2023/01/14 08:34:30;;;;;;;15.02;5.97;;;;;;;6.07;81.74;94922.16;5125421;27;20295;-75
2023/01/14 08:36:57;;;;;;;8.70;4.32;;;;;;;6.03;81.71;94929.19;5125809;27;20197;-79
2023/01/14 08:39:24;;;;;;;7.32;4.93;;;;;;;5.97;81.30;94924.19;5123577;27;20259;-79
2023/01/14 08:41:50;;;;;;;10.88;5.93;;;;;;;6.35;80.78;94923.06;5121943;27;20249;-79
2023/01/14 08:44:19;;;;;;;14.75;5.78;;;;;;;6.47;80.00;94925.28;5128718;27;20228;-79
2023/01/14 08:46:45;;;;;;;11.13;5.28;;;;;;;6.62;79.41;94932.31;5119529;27;20720;-79
2023/01/14 08:49:13;;;;;;;10.85;4.90;;;;;;;6.89;78.36;94929.69;5133440;27;20205;-80
2023/01/14 08:51:40;;;;;;;12.05;8.10;;;;;;;6.70;77.89;94932.44;5133046;27;20804;-80
2023/01/14 08:54:07;;;;;;;9.85;4.28;;;;;;;6.48;78.16;94928.78;5132756;27;20193;-77
2023/01/14 08:56:34;;;;;;;11.88;6.22;;;;;;;6.58;78.36;94934.78;5114564;27;20616;-79
2023/01/14 08:59:01;;;;;;;9.00;5.03;;;;;;;6.54;78.61;94916.84;5120386;27;20216;-80
2023/01/14 09:01:29;;;;;;;6.88;3.92;;;;;;;6.44;77.37;94925.88;5132778;27;20228;-79
2023/01/14 09:03:57;;;;;;;8.65;4.82;;;;;;;6.04;78.76;94921.91;5122268;27;20205;-80
2023/01/14 09:06:25;;;;;;;7.90;4.60;;;;;;;6.21;77.35;94924.09;5126438;27;20225;-81
2023/01/14 09:17:13;;;;;;;6.80;3.05;;;;;;;6.95;74.54;94911.56;5124476;27;20204;-81
2023/01/14 09:19:45;;;;;;;15.40;7.95;;;;;;;7.28;73.72;94914.97;5127638;27;20316;-78
2023/01/14 09:22:16;;;;;;;8.50;2.80;;;;;;;7.30;72.67;94901.97;5124341;27;20312;-78
2023/01/14 09:24:42;;;;;;;4.05;2.53;;;;;;;7.44;72.34;94897.38;5123827;27;20679;-80
2023/01/14 09:27:09;;;;;;;4.88;3.08;;;;;;;7.57;72.33;94888.50;5121888;27;20251;-80
2023/01/14 09:29:36;;;;;;;5.93;2.42;;;;;;;7.24;72.06;94897.81;5115840;27;20815;-81
2023/01/14 09:32:03;;;;;;;4.82;2.63;;;;;;;6.90;72.99;94895.47;5118438;27;20193;-80
2023/01/14 09:34:30;;;;;;;4.90;2.58;;;;;;;7.07;73.35;94896.50;5119608;27;20266;-81
2023/01/14 09:36:57;;;;;;;5.18;2.47;;;;;;;7.23;72.26;94901.59;5118601;27;20268;-79
2023/01/14 09:39:26;;;;;;;5.72;2.47;;;;;;;7.18;71.50;94896.31;5103780;27;20269;-78
2023/01/14 09:41:56;;;;;;;4.70;2.90;;;;;;;7.23;71.80;94896.22;5120516;27;20197;-79
2023/01/14 09:44:25;;;;;;;7.22;3.08;;;;;;;7.07;72.01;94893.00;5121477;27;20576;-79
2023/01/14 09:46:52;;;;;;;6.13;3.50;;;;;;;7.03;72.13;94887.41;5121985;27;20254;-80
2023/01/14 09:49:23;;;;;;;6.47;3.38;;;;;;;7.49;71.29;94883.81;5121375;27;20289;-80
2023/01/14 09:52:12;;;;;;;8.85;2.70;;;;;;;8.28;69.76;94878.81;5126050;27;20664;-80
2023/01/14 09:54:50;;;;;;;13.40;3.58;;;;;;;9.11;67.78;94879.94;5123865;27;20194;-79
2023/01/14 09:57:24;;;;;;;7.38;3.47;;;;;;;9.58;64.52;94872.13;5127190;27;20200;-77
2023/01/14 09:59:58;;;;;;;7.15;3.42;;;;;;;9.85;64.85;94874.56;5119712;27;20189;-78
2023/01/14 10:02:29;;;;;;;9.52;3.35;;;;;;;9.40;64.19;94873.22;5120771;27;20258;-78
2023/01/14 10:05:19;;;;;;;4.15;2.40;;;;;;;8.71;65.17;94870.22;5129661;27;20212;-78
2023/01/14 10:07:47;;;;;;;5.88;2.25;;;;;;;8.22;66.91;94869.22;5124607;27;20201;-78
2023/01/14 10:10:24;;;;;;;6.05;3.13;;;;;;;8.16;68.02;94865.06;5126702;27;20212;-79
2023/01/14 10:12:54;;;;;;;2.72;1.88;;;;;;;7.97;67.26;94872.50;5122787;27;20641;-78
2023/01/14 10:15:32;;;;;;;4.68;2.72;;;;;;;7.97;68.19;94864.41;5124523;27;20204;-80
2023/01/14 10:18:04;;;;;;;3.88;2.65;;;;;;;8.69;66.55;94861.63;5122762;27;20548;-80
2023/01/14 10:20:36;;;;;;;4.85;3.17;;;;;;;8.92;65.61;94860.47;5119050;27;20286;-79
2023/01/14 10:23:11;;;;;;;3.88;2.53;;;;;;;9.13;65.15;94850.72;5120376;27;20592;-78
2023/01/14 10:25:43;;;;;;;6.30;2.85;;;;;;;8.85;65.07;94852.00;5120514;27;20698;-79
2023/01/14 10:28:14;;;;;;;7.22;3.40;;;;;;;9.03;64.90;94856.38;5119820;27;20188;-76
2023/01/14 10:30:43;;;;;;;6.18;3.35;;;;;;;9.21;65.11;94852.63;5122792;27;20184;-78
2023/01/14 10:33:14;;;;;;;5.68;3.25;;;;;;;9.37;64.59;94849.50;5123992;27;20269;-78
2023/01/14 10:35:43;;;;;;;6.15;3.22;;;;;;;8.78;65.28;94848.94;5126721;27;20197;-77
2023/01/14 10:38:17;;;;;;;5.55;3.25;;;;;;;8.23;67.96;94848.44;5124058;27;20196;-77
2023/01/14 10:40:47;;;;;;;5.18;2.92;;;;;;;7.79;68.17;94856.19;5120660;27;20205;-78
2023/01/14 10:43:24;;;;;;;12.52;7.38;;;;;;;8.42;67.99;94849.88;5117545;27;20213;-78
2023/01/14 10:45:51;;;;;;;12.40;6.22;;;;;;;8.73;67.76;94841.00;5118562;27;20686;-79
2023/01/14 10:48:20;;;;;;;9.18;4.82;;;;;;;8.09;68.48;94838.50;5121638;27;20198;-78
2023/01/14 10:50:48;;;;;;;10.52;4.93;;;;;;;8.12;68.77;94853.28;5121811;27;20225;-79
2023/01/14 10:53:19;;;;;;;16.65;5.45;;;;;;;8.42;68.11;94841.78;5118109;27;20200;-78
2023/01/14 10:55:59;;;;;;;7.07;4.18;;;;;;;8.33;68.12;94838.22;5118325;27;20610;-78
2023/01/14 10:58:30;;;;;;;9.65;6.60;;;;;;;8.30;68.55;94836.13;5119304;27;20590;-75
2023/01/14 11:01:04;;;;;;;8.93;5.05;;;;;;;8.44;68.85;94831.47;5117573;27;20213;-78
2023/01/14 11:03:33;;;;;;;12.68;6.35;;;;;;;9.03;66.60;94818.53;5119612;27;20231;-78
2023/01/14 11:06:03;;;;;;;5.85;4.50;;;;;;;8.61;66.81;94822.66;5117094;27;20197;-78
2023/01/14 11:08:35;;;;;;;11.30;6.53;;;;;;;8.75;66.61;94817.16;5118998;27;20242;-78
2023/01/14 11:11:06;;;;;;;14.85;7.88;;;;;;;8.67;69.02;94815.22;5117082;27;20216;-81
2023/01/14 11:13:36;;;;;;;13.18;7.50;;;;;;;8.97;66.87;94814.41;5119608;27;20258;-79
2023/01/14 11:16:03;;;;;;;15.15;8.20;;;;;;;8.76;66.77;94821.44;5119897;27;20212;-80
2023/01/14 11:18:32;;;;;;;11.57;6.57;;;;;;;9.08;65.97;94809.50;5120022;27;20213;-78
2023/01/14 11:21:07;;;;;;;11.82;5.95;;;;;;;8.90;66.10;94819.44;5115392;27;20225;-78
2023/01/14 11:23:37;;;;;;;14.10;6.35;;;;;;;8.85;66.88;94816.91;5120059;27;20181;-79
2023/01/14 11:26:10;;;;;;;8.15;5.00;;;;;;;8.99;66.16;94820.28;5116216;27;20276;-78
2023/01/14 11:28:42;;;;;;;15.60;7.50;;;;;;;8.86;66.17;94816.59;5123008;27;20205;-79
2023/01/14 11:31:10;;;;;;;12.68;6.90;;;;;;;9.13;65.64;94804.75;5122346;28;20188;-78
2023/01/14 11:33:41;;;;;;;12.00;6.63;;;;;;;9.30;65.70;94814.81;5110781;28;20197;-78
2023/01/14 11:36:10;;;;;;;4.35;3.95;;;;;;;8.22;67.65;94820.66;5119519;28;20553;-77
2023/01/14 11:38:48;;;;;;;25.88;15.10;;;;;;;8.04;69.50;94825.16;5120123;28;20209;-78
2023/01/14 11:41:46;;;;;;;14.55;8.40;;;;;;;8.07;70.16;94824.50;5121195;28;20215;-79
2023/01/14 11:44:23;;;;;;;14.35;7.40;;;;;;;8.13;69.58;94817.09;5039944;28;20394;-78
2023/01/14 11:47:12;;;;;;;18.45;11.35;;;;;;;7.74;71.16;94823.94;5112417;27;20204;-78
2023/01/14 11:49:39;;;;;;;18.33;8.75;;;;;;;7.31;72.65;94828.13;5125599;27;21468;-79
2023/01/14 11:52:16;;;;;;;25.40;7.18;;;;;;;7.25;72.46;94834.72;5120360;27;20218;-78
2023/01/14 11:54:44;;;;;;;15.90;8.07;;;;;;;7.30;73.34;94831.94;5122163;27;20189;-78
2023/01/14 11:57:16;;;;;;;13.40;6.18;;;;;;;7.04;73.66;94839.75;5122094;27;20645;-77
2023/01/14 11:59:44;;;;;;;15.70;8.05;;;;;;;6.93;73.97;94849.91;5120639;27;20189;-78
2023/01/14 12:02:18;;;;;;;20.05;5.78;;;;;;;6.90;74.55;94839.75;5106099;27;20220;-81
2023/01/14 12:04:50;;;;;;;20.40;8.73;;;;;;;7.09;75.46;94837.75;5120818;27;20185;-83
2023/01/14 12:07:22;;;;;;;15.63;5.53;;;;;;;7.28;74.96;94834.91;5134945;27;20213;-79
2023/01/14 12:09:54;;;;;;;11.55;6.28;;;;;;;7.22;74.51;94841.53;5120895;27;20200;-77